Saint Ignace, Michigan
Current Conditions -  °F | °C
As of 11:15 PM on Monday 22 Dec 2014 (Local Time) from KMCD Reporting Station
Overcast Overcast  
Wind Chill: 25°   Ceiling: 1500
Heat Index: 33°   Visibility: 10mi
Dew Point: 29°   Wind: 12mph
Humidity: 82%   Direction: 130°SE
Pressure: 29.95"   Gusts: 18mph
Location:  45.87°N, 84.73°W
Report Text: KMCD 230415Z AUTO 13010G16KT 10SM OVC015 01/M02 A2995 RMK AO2 T00081019
Loading
Personal Weather Stations






























Interactive Weather Map New forecast layout! Learn more

10-Day Weather Forecast

Advertisements
Track Severe Weather on mobile